Arpin, Wisconsin
Current Conditions -  °F | °C
As of 2:54 AM on Sunday 26 Oct 2014 (Local Time) from KMFI Reporting Station
Clear Clear  
Wind Chill:   Ceiling: Unl
Heat Index:   Visibility: 10mi
Dew Point: -3°   Wind: 7mph
Humidity: 60%   Direction: 290°WNW
Pressure: 30"   Gusts: NA
Location:  44.54°N, 90.04°W
Report Text: KMFI 260754Z AUTO 29006KT 10SM CLR 04/M03 A3000 RMK AO2 SLP164 T00391033
Loading
Personal Weather Stations






























Interactive Weather Map
Tropical Storm Tracking
New forecast layout! Learn more

10-Day Weather Forecast

Advertisements
Track Severe Weather on mobile